createdAt,value
2017-03-26T00:00:02.358Z,1002.67
2017-03-26T00:01:12.992Z,1002.64
2017-03-26T00:02:22.947Z,1002.68
2017-03-26T00:03:33.070Z,1002.68
2017-03-26T00:04:42.796Z,1002.58
2017-03-26T00:05:53.154Z,1002.61
2017-03-26T00:07:03.275Z,1002.61
2017-03-26T00:08:13.635Z,1002.61
2017-03-26T00:09:23.687Z,1002.55
2017-03-26T00:10:33.724Z,1002.61
2017-03-26T00:11:43.736Z,1002.59
2017-03-26T00:12:54.074Z,1002.57
2017-03-26T00:14:04.100Z,1002.57
2017-03-26T00:15:14.441Z,1002.57
2017-03-26T00:16:24.148Z,1002.59
2017-03-26T00:17:34.184Z,1002.61
2017-03-26T00:18:44.528Z,1002.57
2017-03-26T00:19:54.862Z,1002.56
2017-03-26T00:21:05.225Z,1002.56
2017-03-26T00:22:15.606Z,1002.53
2017-03-26T00:23:25.989Z,1002.51
2017-03-26T00:24:36.326Z,1002.46
2017-03-26T00:25:46.661Z,1002.46
2017-03-26T00:26:56.437Z,1002.46
2017-03-26T00:28:06.483Z,1002.46
2017-03-26T00:29:16.838Z,1002.42
2017-03-26T00:30:27.183Z,1002.45
2017-03-26T00:31:37.548Z,1002.47
2017-03-26T00:32:47.587Z,1002.48
2017-03-26T00:33:57.995Z,1002.49
2017-03-26T00:35:08.356Z,1002.55
2017-03-26T00:36:18.426Z,1002.6
2017-03-26T00:37:28.438Z,1002.6
2017-03-26T00:38:38.791Z,1002.58
2017-03-26T00:39:49.138Z,1002.46
2017-03-26T00:40:59.477Z,1002.42
2017-03-26T00:42:09.824Z,1002.41
2017-03-26T00:43:20.159Z,1002.48
2017-03-26T00:44:30.494Z,1002.51
2017-03-26T00:45:40.819Z,1002.5
2017-03-26T00:46:51.152Z,1002.49
2017-03-26T00:48:01.490Z,1002.5
2017-03-26T00:49:11.830Z,1002.55
2017-03-26T00:50:22.200Z,1002.58
2017-03-26T00:51:32.220Z,1002.52
2017-03-26T00:52:42.574Z,1002.55
2017-03-26T00:53:52.282Z,1002.57
2017-03-26T00:55:02.300Z,1002.62
2017-03-26T00:56:12.654Z,1002.55
2017-03-26T00:57:22.984Z,1002.55
2017-03-26T00:58:33.327Z,1002.51
2017-03-26T00:59:43.682Z,1002.54
2017-03-26T01:00:53.436Z,1002.54
2017-03-26T01:02:03.448Z,1002.55
2017-03-26T01:03:13.841Z,1002.51
2017-03-26T01:04:23.871Z,1002.53
2017-03-26T01:05:34.205Z,1002.6
2017-03-26T01:06:44.531Z,1002.56
2017-03-26T01:07:54.870Z,1002.57
2017-03-26T01:09:04.891Z,1002.54
2017-03-26T01:10:14.923Z,1002.58
2017-03-26T01:11:25.270Z,1002.62
2017-03-26T01:12:35.614Z,1002.65
2017-03-26T01:13:45.637Z,1002.59
2017-03-26T01:14:55.998Z,1002.62
2017-03-26T01:16:06.332Z,1002.67
2017-03-26T01:17:16.728Z,1002.63
2017-03-26T01:18:27.074Z,1002.6
2017-03-26T01:19:37.413Z,1002.64
2017-03-26T01:20:47.747Z,1002.58
2017-03-26T01:21:57.478Z,1002.61
2017-03-26T01:23:07.509Z,1002.6
2017-03-26T01:24:17.282Z,1002.53
2017-03-26T01:25:27.629Z,1002.51
2017-03-26T01:26:37.961Z,1002.44
2017-03-26T01:27:48.010Z,1002.46
2017-03-26T01:28:58.033Z,1002.55
2017-03-26T01:30:08.397Z,1002.57
2017-03-26T01:31:18.423Z,1002.49
2017-03-26T01:32:28.754Z,1002.49
2017-03-26T01:33:38.788Z,1002.52
2017-03-26T01:34:49.129Z,1002.51
2017-03-26T01:35:59.158Z,1002.52
2017-03-26T01:37:09.491Z,1002.51
2017-03-26T01:38:19.509Z,1002.5
2017-03-26T01:39:29.836Z,1002.49
2017-03-26T01:40:39.866Z,1002.49
2017-03-26T01:41:50.216Z,1002.46
2017-03-26T01:43:00.549Z,1002.5
2017-03-26T01:44:10.886Z,1002.51
2017-03-26T01:45:21.245Z,1002.5
2017-03-26T01:46:31.583Z,1002.5
2017-03-26T01:47:41.915Z,1002.53
2017-03-26T01:48:51.953Z,1002.54
2017-03-26T01:50:02.290Z,1002.56
2017-03-26T01:51:12.625Z,1002.53
2017-03-26T01:52:22.658Z,1002.53
2017-03-26T01:53:32.700Z,1002.55
2017-03-26T01:54:42.728Z,1002.52
2017-03-26T01:55:53.066Z,1002.46
2017-03-26T01:57:03.390Z,1002.49
2017-03-26T01:58:13.718Z,1002.54
2017-03-26T01:59:23.781Z,1002.61
2017-03-26T02:00:33.875Z,1002.6
2017-03-26T02:01:43.907Z,1002.64
2017-03-26T02:02:53.934Z,1002.57
2017-03-26T02:04:03.963Z,1002.56
2017-03-26T02:05:14.309Z,1002.54
2017-03-26T02:06:24.338Z,1002.56
2017-03-26T02:07:34.820Z,1002.59
2017-03-26T02:08:45.163Z,1002.62
2017-03-26T02:09:55.506Z,1002.63
2017-03-26T02:11:05.276Z,1002.63
2017-03-26T02:12:15.311Z,1002.62
2017-03-26T02:13:25.655Z,1002.61
2017-03-26T02:14:35.997Z,1002.63
2017-03-26T02:15:46.344Z,1002.69
2017-03-26T02:16:56.517Z,1002.63
2017-03-26T02:18:06.217Z,1002.61
2017-03-26T02:19:16.558Z,1002.6
2017-03-26T02:20:26.582Z,1002.58
2017-03-26T02:21:36.925Z,1002.55
2017-03-26T02:22:47.247Z,1002.5
2017-03-26T02:23:57.607Z,1002.53
2017-03-26T02:25:07.947Z,1002.53
2017-03-26T02:26:17.980Z,1002.5
2017-03-26T02:27:28.314Z,1002.61
2017-03-26T02:28:38.337Z,1002.62
2017-03-26T02:29:48.698Z,1002.61
2017-03-26T02:30:58.764Z,1002.61
2017-03-26T02:32:09.103Z,1002.63
2017-03-26T02:33:19.476Z,1002.57
2017-03-26T02:34:29.826Z,1002.6
2017-03-26T02:35:39.849Z,1002.59
2017-03-26T02:36:49.865Z,1002.65
2017-03-26T02:38:00.200Z,1002.69
2017-03-26T02:39:10.561Z,1002.66
2017-03-26T02:40:20.903Z,1002.69
2017-03-26T02:41:30.615Z,1002.73
2017-03-26T02:42:40.948Z,1002.69
2017-03-26T02:43:51.313Z,1002.64
2017-03-26T02:45:01.641Z,1002.63
2017-03-26T02:46:11.329Z,1002.66
2017-03-26T02:47:21.685Z,1002.61
2017-03-26T02:48:31.751Z,1002.62
2017-03-26T02:49:42.433Z,1002.59
2017-03-26T02:50:52.989Z,1002.58
2017-03-26T02:52:03.325Z,1002.63
2017-03-26T02:53:13.352Z,1002.65
2017-03-26T02:54:23.376Z,1002.66
2017-03-26T02:55:33.722Z,1002.71
2017-03-26T02:56:43.436Z,1002.74
2017-03-26T02:57:53.779Z,1002.74
2017-03-26T02:59:03.815Z,1002.8
2017-03-26T03:00:14.165Z,1002.8
2017-03-26T03:01:24.512Z,1002.72
2017-03-26T03:32:14.145Z,1002.97
2017-03-26T03:33:24.474Z,1003.01
2017-03-26T03:34:34.812Z,1003.02
2017-03-26T03:35:45.134Z,1003.06
2017-03-26T03:36:54.834Z,1003.09
2017-03-26T03:38:05.168Z,1003.08
2017-03-26T03:39:15.505Z,1003.11
2017-03-26T03:40:25.859Z,1003.12
2017-03-26T03:41:35.889Z,1003.22
2017-03-26T03:42:45.908Z,1003.23
2017-03-26T03:43:56.248Z,1003.25
2017-03-26T03:45:06.272Z,1003.27
2017-03-26T03:46:16.607Z,1003.33
2017-03-26T03:47:26.631Z,1003.34
2017-03-26T03:48:36.651Z,1003.37
2017-03-26T03:49:46.367Z,1003.42
2017-03-26T03:50:56.392Z,1003.45
2017-03-26T03:52:06.109Z,1003.46
2017-03-26T03:53:16.452Z,1003.5
2017-03-26T03:54:26.794Z,1003.49
2017-03-26T03:55:36.831Z,1003.51
2017-03-26T03:56:46.852Z,1003.61
2017-03-26T03:57:57.184Z,1003.62
2017-03-26T03:59:07.548Z,1003.55
2017-03-26T04:00:17.886Z,1003.61
2017-03-26T04:01:27.907Z,1003.56
2017-03-26T04:02:38.302Z,1003.64
2017-03-26T04:03:48.644Z,1003.66
2017-03-26T04:04:58.989Z,1003.67
2017-03-26T04:06:09.021Z,1003.69
2017-03-26T04:07:19.084Z,1003.69
2017-03-26T04:08:29.457Z,1003.75
2017-03-26T04:09:39.560Z,1003.74
2017-03-26T04:10:49.606Z,1003.76
2017-03-26T04:11:59.954Z,1003.76
2017-03-26T04:13:10.290Z,1003.8
2017-03-26T04:14:20.316Z,1003.76
2017-03-26T04:15:30.655Z,1003.8
2017-03-26T04:16:40.991Z,1003.88
2017-03-26T04:17:51.324Z,1003.91
2017-03-26T04:19:01.414Z,1004.01
2017-03-26T04:20:11.454Z,1004.03
2017-03-26T04:21:21.846Z,1004.05
2017-03-26T04:22:32.175Z,1004.02
2017-03-26T04:23:42.212Z,1004.03
2017-03-26T04:24:52.284Z,1004.02
2017-03-26T04:26:02.649Z,1004.04
2017-03-26T04:27:12.974Z,1004.03
2017-03-26T04:28:23.299Z,1004.01
2017-03-26T04:29:33.721Z,1004.03
2017-03-26T04:30:44.106Z,1004.04
2017-03-26T04:31:54.438Z,1004.08
2017-03-26T04:33:04.765Z,1004.02
2017-03-26T04:34:14.786Z,1004.04
2017-03-26T04:35:24.817Z,1004.03
2017-03-26T04:36:35.195Z,1004.07
2017-03-26T04:37:45.530Z,1004.06
2017-03-26T04:38:55.826Z,1004.08
2017-03-26T04:40:05.557Z,1004.14
2017-03-26T04:41:15.952Z,1004.15
2017-03-26T04:42:26.322Z,1004.15
2017-03-26T04:43:36.689Z,1004.2
2017-03-26T04:44:46.701Z,1004.21
2017-03-26T04:45:56.424Z,1004.21
2017-03-26T04:47:06.459Z,1004.19
2017-03-26T04:48:16.801Z,1004.24
2017-03-26T04:49:27.158Z,1004.26
2017-03-26T04:50:37.495Z,1004.22
2017-03-26T04:51:47.516Z,1004.2
2017-03-26T04:52:57.852Z,1004.21
2017-03-26T04:54:08.191Z,1004.21
2017-03-26T04:55:18.536Z,1004.2
2017-03-26T04:56:28.870Z,1004.18
2017-03-26T04:57:39.190Z,1004.21
2017-03-26T04:58:49.516Z,1004.21
2017-03-26T04:59:59.847Z,1004.21
2017-03-26T05:01:10.209Z,1004.24
2017-03-26T05:02:20.587Z,1004.21
2017-03-26T05:03:30.602Z,1004.2
2017-03-26T05:04:40.936Z,1004.31
2017-03-26T05:05:51.273Z,1004.26
2017-03-26T05:07:01.273Z,1004.21
2017-03-26T05:08:11.304Z,1004.21
2017-03-26T05:09:21.336Z,1004.2
2017-03-26T05:10:31.677Z,1004.24
2017-03-26T05:11:41.726Z,1004.26
2017-03-26T05:12:52.059Z,1004.22
2017-03-26T05:14:02.405Z,1004.25
2017-03-26T05:15:12.430Z,1004.28
2017-03-26T05:16:22.778Z,1004.29
2017-03-26T05:17:33.124Z,1004.32
2017-03-26T05:18:43.460Z,1004.34
2017-03-26T05:19:53.807Z,1004.33
2017-03-26T05:21:04.141Z,1004.34
2017-03-26T05:22:13.864Z,1004.32
2017-03-26T05:23:23.876Z,1004.37
2017-03-26T05:24:33.901Z,1004.34
2017-03-26T05:25:44.248Z,1004.29
2017-03-26T05:26:54.269Z,1004.29
2017-03-26T05:28:03.984Z,1004.31
2017-03-26T05:29:14.221Z,1004.32
2017-03-26T05:30:24.565Z,1004.35
2017-03-26T05:31:34.902Z,1004.35
2017-03-26T05:32:45.253Z,1004.37
2017-03-26T05:33:55.590Z,1004.38
2017-03-26T05:35:05.927Z,1004.36
2017-03-26T05:36:16.259Z,1004.4
2017-03-26T05:37:26.595Z,1004.44
2017-03-26T05:38:36.950Z,1004.44
2017-03-26T05:39:47.279Z,1004.39
2017-03-26T05:40:57.332Z,1004.44
2017-03-26T05:42:07.676Z,1004.39
2017-03-26T05:43:18.006Z,1004.38
2017-03-26T05:44:28.350Z,1004.37
2017-03-26T05:45:38.389Z,1004.36
2017-03-26T05:46:48.723Z,1004.34
2017-03-26T05:47:59.079Z,1004.37
2017-03-26T05:49:09.431Z,1004.41
2017-03-26T05:50:19.782Z,1004.32
2017-03-26T05:51:30.100Z,1004.39
2017-03-26T05:52:40.437Z,1004.44
2017-03-26T05:53:50.774Z,1004.38
2017-03-26T05:55:01.114Z,1004.39
2017-03-26T05:56:11.452Z,1004.45
2017-03-26T05:57:21.783Z,1004.49
2017-03-26T05:58:32.166Z,1004.5
2017-03-26T05:59:42.207Z,1004.48
2017-03-26T06:00:52.253Z,1004.5
2017-03-26T06:02:02.601Z,1004.45
2017-03-26T06:03:12.640Z,1004.45
2017-03-26T06:04:22.994Z,1004.45
2017-03-26T06:05:33.362Z,1004.46
2017-03-26T06:06:43.701Z,1004.48
2017-03-26T06:07:54.233Z,1004.5
2017-03-26T06:09:04.806Z,1004.56
2017-03-26T06:10:15.341Z,1004.6
2017-03-26T06:11:25.681Z,1004.61
2017-03-26T06:12:36.015Z,1004.59
2017-03-26T06:13:46.370Z,1004.58
2017-03-26T06:14:56.085Z,1004.62
2017-03-26T06:16:06.123Z,1004.66
2017-03-26T06:17:16.452Z,1004.6
2017-03-26T06:18:27.038Z,1004.59
2017-03-26T06:19:37.615Z,1004.62
2017-03-26T06:20:47.331Z,1004.73
2017-03-26T06:21:57.669Z,1004.73
2017-03-26T06:23:07.681Z,1004.72
2017-03-26T06:24:18.024Z,1004.71
2017-03-26T06:25:28.056Z,1004.78
2017-03-26T06:26:38.391Z,1004.76
2017-03-26T06:27:48.414Z,1004.73
2017-03-26T06:28:58.750Z,1004.73
2017-03-26T06:30:08.792Z,1004.74
2017-03-26T06:31:18.519Z,1004.78
2017-03-26T06:32:28.865Z,1004.78
2017-03-26T06:33:39.199Z,1004.79
2017-03-26T06:34:49.534Z,1004.86
2017-03-26T06:35:59.563Z,1004.92
2017-03-26T06:37:09.898Z,1004.89
2017-03-26T06:38:20.253Z,1004.94
2017-03-26T06:39:30.268Z,1004.91
2017-03-26T06:40:40.286Z,1004.94
2017-03-26T06:41:50.633Z,1004.93
2017-03-26T06:43:00.978Z,1004.96
2017-03-26T06:44:10.369Z,1004.83
2017-03-26T06:45:20.725Z,1004.9
2017-03-26T06:46:31.075Z,1004.92
2017-03-26T06:47:41.415Z,1004.9
2017-03-26T06:48:51.770Z,1004.95
2017-03-26T06:50:02.097Z,1004.94
2017-03-26T06:51:12.435Z,1005
2017-03-26T06:52:22.784Z,1004.98
2017-03-26T06:53:33.132Z,1004.98
2017-03-26T06:54:43.498Z,1004.99
2017-03-26T06:55:53.520Z,1005
2017-03-26T06:57:03.854Z,1005.08
2017-03-26T06:58:14.185Z,1005.08
2017-03-26T06:59:24.214Z,1005.08
2017-03-26T07:00:34.248Z,1005.15
2017-03-26T07:01:44.267Z,1005.06
2017-03-26T07:02:54.599Z,1005.09
2017-03-26T07:04:04.617Z,1005.15
2017-03-26T07:05:14.961Z,1005.18
2017-03-26T07:06:24.996Z,1005.21
2017-03-26T07:07:35.343Z,1005.05
2017-03-26T07:08:45.364Z,1005.09
2017-03-26T07:09:55.080Z,1005.11
2017-03-26T07:11:05.445Z,1005.13
2017-03-26T07:12:15.466Z,1005.13
2017-03-26T07:13:25.812Z,1005.08
2017-03-26T07:14:36.174Z,1005.07
2017-03-26T07:15:46.528Z,1005.1
2017-03-26T07:16:56.542Z,1005.05
2017-03-26T07:18:06.879Z,1005.09
2017-03-26T07:19:17.235Z,1005.11
2017-03-26T07:20:27.585Z,1005.13
2017-03-26T07:21:37.939Z,1005.06
2017-03-26T07:22:48.324Z,1005.08
2017-03-26T07:23:58.700Z,1005.11
2017-03-26T07:25:08.735Z,1005.19
2017-03-26T07:26:18.814Z,1005.15
2017-03-26T07:27:28.850Z,1005.15
2017-03-26T07:28:39.181Z,1005.12
2017-03-26T07:29:49.526Z,1005.14
2017-03-26T07:30:59.900Z,1005.16
2017-03-26T07:32:10.246Z,1005.24
2017-03-26T07:33:20.578Z,1005.27
2017-03-26T07:34:30.931Z,1005.28
2017-03-26T07:35:41.272Z,1005.25
2017-03-26T07:36:50.987Z,1005.29
2017-03-26T07:38:01.031Z,1005.28
2017-03-26T07:39:11.401Z,1005.24
2017-03-26T07:40:21.721Z,1005.3
2017-03-26T07:41:32.060Z,1005.26
2017-03-26T07:42:42.392Z,1005.18
2017-03-26T07:43:52.751Z,1005.19
2017-03-26T07:45:03.122Z,1005.15
2017-03-26T07:46:12.837Z,1005.17
2017-03-26T07:47:22.878Z,1005.26
2017-03-26T07:48:33.212Z,1005.42
2017-03-26T07:49:43.243Z,1005.41
2017-03-26T07:50:53.582Z,1005.42
2017-03-26T07:52:03.912Z,1005.35
2017-03-26T07:53:14.286Z,1005.2
2017-03-26T07:54:24.627Z,1005.19
2017-03-26T07:55:34.991Z,1005.1
2017-03-26T07:56:45.338Z,1005.17
2017-03-26T07:57:55.689Z,1005.27
2017-03-26T07:59:05.726Z,1005.34
2017-03-26T08:00:15.762Z,1005.36
2017-03-26T08:01:25.800Z,1005.42
2017-03-26T08:02:36.144Z,1005.38
2017-03-26T08:03:46.476Z,1005.37
2017-03-26T08:04:56.825Z,1005.34
2017-03-26T08:06:07.192Z,1005.25
2017-03-26T08:07:17.287Z,1005.18
2017-03-26T08:08:27.635Z,1005.23
2017-03-26T08:09:38.015Z,1005.24
2017-03-26T08:10:48.385Z,1005.28
2017-03-26T08:11:58.784Z,1005.31
2017-03-26T08:13:09.121Z,1005.34
2017-03-26T08:14:19.464Z,1005.32
2017-03-26T08:15:29.795Z,1005.28
2017-03-26T08:16:39.825Z,1005.15
2017-03-26T08:17:50.161Z,1005.15
2017-03-26T08:19:00.514Z,1005.08
2017-03-26T08:20:10.848Z,1005.14
2017-03-26T08:21:21.175Z,1005.14
2017-03-26T08:22:31.509Z,1005.36
2017-03-26T08:23:41.231Z,1005.41
2017-03-26T08:24:51.580Z,1005.54
2017-03-26T08:26:01.941Z,1005.56
2017-03-26T08:27:11.958Z,1005.53
2017-03-26T08:28:22.301Z,1005.5
2017-03-26T08:29:32.369Z,1005.53
2017-03-26T08:30:42.698Z,1005.5
2017-03-26T08:31:53.042Z,1005.57
2017-03-26T08:33:03.066Z,1005.6
2017-03-26T08:34:13.400Z,1005.52
2017-03-26T08:35:23.753Z,1005.57
2017-03-26T08:36:33.780Z,1005.55
2017-03-26T08:37:43.842Z,1005.59
2017-03-26T08:38:54.189Z,1005.58
2017-03-26T08:40:04.532Z,1005.6
2017-03-26T08:41:14.864Z,1005.55
2017-03-26T08:42:25.214Z,1005.52
2017-03-26T08:43:35.549Z,1005.55
2017-03-26T08:44:45.889Z,1005.57
2017-03-26T08:45:55.927Z,1005.64
2017-03-26T08:47:05.944Z,1005.68
2017-03-26T08:48:15.972Z,1005.71
2017-03-26T08:49:26.333Z,1005.7
2017-03-26T08:50:36.666Z,1005.69
2017-03-26T08:51:47.011Z,1005.62
2017-03-26T08:52:57.361Z,1005.55
2017-03-26T08:54:07.720Z,1005.62
2017-03-26T08:55:18.074Z,1005.72
2017-03-26T08:56:28.154Z,1005.61
2017-03-26T08:57:38.515Z,1005.7
2017-03-26T08:58:48.549Z,1005.69
2017-03-26T08:59:58.904Z,1005.68
2017-03-26T09:01:08.945Z,1005.68
2017-03-26T09:02:19.281Z,1005.7
2017-03-26T09:03:29.632Z,1005.66
2017-03-26T09:04:39.681Z,1005.6
2017-03-26T09:05:50.019Z,1005.61
2017-03-26T09:07:00.055Z,1005.69
2017-03-26T09:08:10.409Z,1005.76
2017-03-26T09:09:20.750Z,1005.75
2017-03-26T09:10:31.105Z,1005.74
2017-03-26T09:11:41.458Z,1005.82
2017-03-26T09:12:51.489Z,1005.77
2017-03-26T09:14:01.835Z,1005.87
2017-03-26T09:15:12.206Z,1005.86
2017-03-26T09:16:22.574Z,1005.84
2017-03-26T09:17:32.917Z,1005.85
2017-03-26T09:18:42.960Z,1005.87
2017-03-26T09:19:53.291Z,1005.86
2017-03-26T09:21:03.640Z,1005.93
2017-03-26T09:22:13.669Z,1005.94
2017-03-26T09:23:24.054Z,1005.95
2017-03-26T09:24:34.147Z,1005.97
2017-03-26T09:25:43.866Z,1005.99
2017-03-26T09:26:54.210Z,1005.96
2017-03-26T09:28:04.586Z,1005.9
2017-03-26T09:29:14.294Z,1005.88
2017-03-26T09:30:24.640Z,1005.92
2017-03-26T09:31:34.660Z,1005.79
2017-03-26T09:32:44.993Z,1005.84
2017-03-26T09:33:55.322Z,1005.82
2017-03-26T09:35:05.039Z,1005.83
2017-03-26T09:36:15.385Z,1005.82
2017-03-26T09:37:25.735Z,1006.02
2017-03-26T09:38:36.142Z,1006.1
2017-03-26T09:39:45.859Z,1006.13
2017-03-26T09:40:56.218Z,1006.17
2017-03-26T09:42:06.542Z,1006.23
2017-03-26T09:43:16.589Z,1006.22
2017-03-26T09:44:26.296Z,1006.27
2017-03-26T09:45:36.683Z,1006.24
2017-03-26T09:46:46.747Z,1006.2
2017-03-26T09:47:57.117Z,1006.2
2017-03-26T09:49:07.490Z,1006.23
2017-03-26T09:50:17.841Z,1006.22
2017-03-26T09:51:28.189Z,1006.19
2017-03-26T09:52:38.526Z,1006.16
2017-03-26T09:53:48.872Z,1006.15
2017-03-26T09:54:58.940Z,1006.17
2017-03-26T09:56:08.999Z,1006.17
2017-03-26T09:57:19.371Z,1006.21
2017-03-26T09:58:29.769Z,1006.19
2017-03-26T09:59:39.809Z,1006.12
2017-03-26T10:00:49.829Z,1006.16
2017-03-26T10:02:00.162Z,1006.2
2017-03-26T10:03:10.505Z,1006.19
2017-03-26T10:04:20.861Z,1006.17
2017-03-26T10:05:30.886Z,1006.16
2017-03-26T10:06:41.243Z,1006.13
2017-03-26T10:07:51.270Z,1006.06
2017-03-26T10:09:01.622Z,1006.04
2017-03-26T10:10:11.971Z,1006.06
2017-03-26T10:11:22.321Z,1006.06
2017-03-26T10:12:32.351Z,1006.12
2017-03-26T10:13:42.709Z,1006.15
2017-03-26T10:14:53.064Z,1006.13
2017-03-26T10:16:03.087Z,1006.14
2017-03-26T10:17:13.435Z,1006.12
2017-03-26T10:18:23.486Z,1006.15
2017-03-26T10:19:33.210Z,1006.16
2017-03-26T10:20:43.548Z,1006.18
2017-03-26T10:21:53.893Z,1006.17
2017-03-26T10:23:04.236Z,1006.13
2017-03-26T10:24:14.291Z,1006.21
2017-03-26T10:25:24.341Z,1006.13
2017-03-26T10:26:34.430Z,1006.11
2017-03-26T10:27:44.786Z,1006.07
2017-03-26T10:28:55.155Z,1006.05
2017-03-26T10:30:05.516Z,1006.04
2017-03-26T10:31:15.856Z,1005.94
2017-03-26T10:32:25.873Z,1006
2017-03-26T10:33:36.218Z,1006.08
2017-03-26T10:34:46.571Z,1006.13
2017-03-26T10:35:56.929Z,1006.14
2017-03-26T10:37:07.292Z,1006.16
2017-03-26T10:38:17.010Z,1006.15
2017-03-26T10:39:27.047Z,1006.09
2017-03-26T10:40:37.071Z,1006.17
2017-03-26T10:41:47.431Z,1006.15
2017-03-26T10:42:57.794Z,1006.17
2017-03-26T10:44:08.134Z,1006.12
2017-03-26T10:45:18.515Z,1006.12
2017-03-26T10:46:28.875Z,1006.06
2017-03-26T10:47:39.227Z,1006.12
2017-03-26T10:48:49.253Z,1006.1
2017-03-26T10:49:59.592Z,1006.03
2017-03-26T10:51:09.321Z,1006.03
2017-03-26T10:52:19.037Z,1006.04
2017-03-26T10:53:29.377Z,1006.02
2017-03-26T10:54:39.419Z,1006.12
2017-03-26T10:55:49.465Z,1006.1
2017-03-26T10:56:59.495Z,1006.1
2017-03-26T10:58:09.845Z,1006.04
2017-03-26T10:59:20.211Z,1005.98
2017-03-26T11:00:30.577Z,1005.95
2017-03-26T11:01:40.614Z,1005.95
2017-03-26T11:02:50.643Z,1005.95
2017-03-26T11:04:00.679Z,1005.96
2017-03-26T11:05:11.018Z,1006.02
2017-03-26T11:06:21.364Z,1006.01
2017-03-26T11:07:31.709Z,1006.08
2017-03-26T11:08:41.738Z,1006.1
2017-03-26T11:09:52.140Z,1006.13
2017-03-26T11:11:02.188Z,1006.1
2017-03-26T11:12:12.529Z,1006.09
2017-03-26T11:13:22.891Z,1006.16
2017-03-26T11:14:32.934Z,1006.14
2017-03-26T11:15:43.278Z,1006.09
2017-03-26T11:16:53.312Z,1006.13
2017-03-26T11:18:03.034Z,1006.17
2017-03-26T11:19:13.084Z,1006.12
2017-03-26T11:20:23.427Z,1006.05
2017-03-26T11:21:33.767Z,1005.9
2017-03-26T11:22:43.169Z,1005.96
2017-03-26T11:23:53.523Z,1005.96
2017-03-26T11:25:03.894Z,1005.97
2017-03-26T11:26:14.249Z,1006.02
2017-03-26T11:27:24.283Z,1005.9
2017-03-26T11:28:34.620Z,1005.9
2017-03-26T11:29:44.976Z,1005.87
2017-03-26T11:30:55.335Z,1005.88
2017-03-26T11:32:05.654Z,1005.92
2017-03-26T11:33:16.015Z,1005.91
2017-03-26T11:34:26.370Z,1005.89
2017-03-26T11:35:36.438Z,1005.95
2017-03-26T11:36:46.786Z,1005.9
2017-03-26T11:37:57.146Z,1005.9
2017-03-26T11:39:07.532Z,1005.95
2017-03-26T11:40:17.885Z,1005.8
2017-03-26T11:41:27.911Z,1005.82
2017-03-26T11:42:38.267Z,1005.81
2017-03-26T11:43:48.590Z,1005.86
2017-03-26T11:44:58.942Z,1005.82
2017-03-26T11:46:08.985Z,1005.79
2017-03-26T11:47:19.526Z,1005.84
2017-03-26T11:48:29.877Z,1005.81
2017-03-26T11:49:40.251Z,1005.77
2017-03-26T11:50:50.301Z,1005.76
2017-03-26T11:52:00.663Z,1005.64
2017-03-26T11:53:11.001Z,1005.7
2017-03-26T11:54:21.348Z,1005.61
2017-03-26T11:55:31.694Z,1005.65
2017-03-26T11:56:41.737Z,1005.63
2017-03-26T11:57:52.095Z,1005.59
2017-03-26T11:59:01.812Z,1005.58
2017-03-26T12:00:12.166Z,1005.53
2017-03-26T12:01:22.511Z,1005.49
2017-03-26T12:02:32.860Z,1005.48
2017-03-26T12:03:43.226Z,1005.51
2017-03-26T12:04:53.253Z,1005.57
2017-03-26T12:06:03.292Z,1005.6
2017-03-26T12:07:13.680Z,1005.59
2017-03-26T12:08:24.052Z,1005.57
2017-03-26T12:09:33.785Z,1005.55
2017-03-26T12:10:43.832Z,1005.54
2017-03-26T12:11:54.168Z,1005.53
2017-03-26T12:13:04.507Z,1005.53
2017-03-26T12:14:14.878Z,1005.53
2017-03-26T12:15:25.236Z,1005.5
2017-03-26T12:16:34.958Z,1005.48
2017-03-26T12:17:45.287Z,1005.48
2017-03-26T12:18:55.682Z,1005.43
2017-03-26T12:20:06.035Z,1005.39
2017-03-26T12:21:16.388Z,1005.42
2017-03-26T12:22:26.419Z,1005.35
2017-03-26T12:23:36.456Z,1005.34
2017-03-26T12:24:46.507Z,1005.41
2017-03-26T12:25:56.557Z,1005.42
2017-03-26T12:27:06.273Z,1005.39
2017-03-26T12:28:16.598Z,1005.46
2017-03-26T12:29:26.973Z,1005.45
2017-03-26T12:30:36.690Z,1005.48
2017-03-26T12:31:47.023Z,1005.54
2017-03-26T12:32:57.383Z,1005.46
2017-03-26T12:34:07.774Z,1005.4
2017-03-26T12:35:17.797Z,1005.37
2017-03-26T12:36:27.818Z,1005.4
2017-03-26T12:37:38.144Z,1005.36
2017-03-26T12:38:48.487Z,1005.42
2017-03-26T12:39:58.544Z,1005.34
2017-03-26T12:41:08.896Z,1005.31
2017-03-26T12:42:19.226Z,1005.36
2017-03-26T12:43:29.561Z,1005.34
2017-03-26T12:44:39.917Z,1005.32
2017-03-26T12:45:50.269Z,1005.31
2017-03-26T12:47:00.658Z,1005.29
2017-03-26T12:48:10.716Z,1005.27
2017-03-26T12:49:21.081Z,1005.24
2017-03-26T12:50:31.451Z,1005.21
2017-03-26T12:51:41.802Z,1005.27
2017-03-26T12:52:52.153Z,1005.24
2017-03-26T12:54:02.530Z,1005.3
2017-03-26T12:55:12.882Z,1005.23
2017-03-26T12:56:23.287Z,1005.23
2017-03-26T12:57:33.017Z,1005.19
2017-03-26T12:58:42.747Z,1005.2
2017-03-26T12:59:53.100Z,1005.17
2017-03-26T13:01:03.479Z,1005.2
2017-03-26T13:02:13.831Z,1005.23
2017-03-26T13:03:23.867Z,1005.26
2017-03-26T13:04:34.240Z,1005.25
2017-03-26T13:05:44.602Z,1005.27
2017-03-26T13:06:54.968Z,1005.36
2017-03-26T13:08:05.327Z,1005.34
2017-03-26T13:09:15.380Z,1005.38
2017-03-26T13:10:25.763Z,1005.36
2017-03-26T13:11:35.859Z,1005.27
2017-03-26T13:12:46.231Z,1005.38
2017-03-26T13:13:56.591Z,1005.32
2017-03-26T13:15:06.967Z,1005.23
2017-03-26T13:16:16.699Z,1005.27
2017-03-26T13:17:27.048Z,1005.21
2017-03-26T13:18:37.103Z,1005.32
2017-03-26T13:19:47.455Z,1005.34
2017-03-26T13:20:57.822Z,1005.28
2017-03-26T13:22:08.160Z,1005.3
2017-03-26T13:23:18.265Z,1005.32
2017-03-26T13:24:28.327Z,1005.33
2017-03-26T13:25:38.727Z,1005.39
2017-03-26T13:26:49.099Z,1005.36
2017-03-26T13:27:59.457Z,1005.4
2017-03-26T13:29:09.813Z,1005.37
2017-03-26T13:30:20.191Z,1005.32
2017-03-26T13:31:30.480Z,1005.39
2017-03-26T13:32:40.533Z,1005.33
2017-03-26T13:33:50.577Z,1005.3
2017-03-26T13:35:00.642Z,1005.32
2017-03-26T13:36:11.009Z,1005.34
2017-03-26T13:37:21.374Z,1005.42
2017-03-26T13:38:31.771Z,1005.41
2017-03-26T13:39:42.142Z,1005.52
2017-03-26T13:40:52.496Z,1005.47
2017-03-26T13:42:02.837Z,1005.42
2017-03-26T13:43:13.195Z,1005.44
2017-03-26T13:44:23.256Z,1005.38
2017-03-26T13:45:33.697Z,1005.39
2017-03-26T13:46:44.036Z,1005.41
2017-03-26T13:47:54.072Z,1005.4
2017-03-26T13:49:04.419Z,1005.44
2017-03-26T13:50:14.796Z,1005.5
2017-03-26T13:51:25.121Z,1005.49
2017-03-26T13:52:35.486Z,1005.54
2017-03-26T13:53:45.538Z,1005.48
2017-03-26T13:54:55.598Z,1005.57
2017-03-26T13:56:06.006Z,1005.57
2017-03-26T13:57:16.358Z,1005.53
2017-03-26T13:58:26.425Z,1005.63
2017-03-26T13:59:36.825Z,1005.6
2017-03-26T14:00:47.221Z,1005.56
2017-03-26T14:01:57.600Z,1005.61
2017-03-26T14:03:07.961Z,1005.59
2017-03-26T14:04:18.339Z,1005.62
2017-03-26T14:05:28.694Z,1005.62
2017-03-26T14:06:39.057Z,1005.71
2017-03-26T14:07:49.414Z,1005.69
2017-03-26T14:08:59.766Z,1005.65
2017-03-26T14:10:10.168Z,1005.7
2017-03-26T14:11:20.213Z,1005.7
2017-03-26T14:12:30.572Z,1005.69
2017-03-26T14:13:41.008Z,1005.69
2017-03-26T14:14:51.377Z,1005.7
2017-03-26T14:16:01.447Z,1005.71
2017-03-26T14:17:11.165Z,1005.69
2017-03-26T14:18:21.199Z,1005.67
2017-03-26T14:19:31.566Z,1005.64
2017-03-26T14:20:41.656Z,1005.63
2017-03-26T14:21:52.020Z,1005.71
2017-03-26T14:23:02.377Z,1005.67
2017-03-26T14:24:12.402Z,1005.72
2017-03-26T14:25:22.750Z,1005.65
2017-03-26T14:26:33.111Z,1005.64
2017-03-26T14:27:43.174Z,1005.69
2017-03-26T14:28:53.560Z,1005.68
2017-03-26T14:30:03.605Z,1005.65
2017-03-26T14:31:14.005Z,1005.66
2017-03-26T14:32:24.662Z,1005.59
2017-03-26T14:33:34.719Z,1005.59
2017-03-26T14:34:44.760Z,1005.58
2017-03-26T14:35:55.107Z,1005.6
2017-03-26T14:37:05.482Z,1005.59
2017-03-26T14:38:15.527Z,1005.55
2017-03-26T14:39:25.598Z,1005.58
2017-03-26T14:40:36.181Z,1005.6
2017-03-26T14:41:46.575Z,1005.51